sensor_id;sensor_type;location;lat;lon;timestamp;P1;P2;P0
74430;PMS7003;62863;52.062;23.764;2024-03-06T01:59:44;28;25.4;17.4
74430;PMS7003;62863;52.062;23.764;2024-03-06T02:04:58;26.8;24.4;17.2
74430;PMS7003;62863;52.062;23.764;2024-03-06T02:09:44;26.6;24.8;17.4
74430;PMS7003;62863;52.062;23.764;2024-03-06T02:15:08;26.8;24.8;16.8
74430;PMS7003;62863;52.062;23.764;2024-03-06T02:19:38;26.8;24.8;16.8
74430;PMS7003;62863;52.062;23.764;2024-03-06T02:25:08;29.2;26.8;17.6
74430;PMS7003;62863;52.062;23.764;2024-03-06T02:29:36;29.2;26.8;17.6
74430;PMS7003;62863;52.062;23.764;2024-03-06T02:34:52;26.6;24.4;16.4
74430;PMS7003;62863;52.062;23.764;2024-03-06T02:39:44;27.8;24.2;15.8
74430;PMS7003;62863;52.062;23.764;2024-03-06T02:44:54;28.8;26.4;17.2
74430;PMS7003;62863;52.062;23.764;2024-03-06T02:49:58;28.3;25.3;16.5
74430;PMS7003;62863;52.062;23.764;2024-03-06T02:55:08;25.8;22.2;15.6
74430;PMS7003;62863;52.062;23.764;2024-03-06T02:59:36;25.8;22.2;15.6
74430;PMS7003;62863;52.062;23.764;2024-03-06T03:05:08;24.8;22.6;15.2
74430;PMS7003;62863;52.062;23.764;2024-03-06T03:09:48;24.8;22.6;15.2
74430;PMS7003;62863;52.062;23.764;2024-03-06T03:14:30;24;21.6;15
74430;PMS7003;62863;52.062;23.764;2024-03-06T03:19:48;25.2;21.4;14.4
74430;PMS7003;62863;52.062;23.764;2024-03-06T03:24:36;22.8;19.8;14
74430;PMS7003;62863;52.062;23.764;2024-03-06T03:29:58;23.6;20;12.4
74430;PMS7003;62863;52.062;23.764;2024-03-06T03:34:36;22.6;20.4;14.2
74430;PMS7003;62863;52.062;23.764;2024-03-06T03:39:58;20.4;17.6;12.4
74430;PMS7003;62863;52.062;23.764;2024-03-06T03:45:08;23;18.8;13.8
74430;PMS7003;62863;52.062;23.764;2024-03-06T03:50:06;20;18.2;12.6
74430;PMS7003;62863;52.062;23.764;2024-03-06T03:54:44;20;18.2;12.6
74430;PMS7003;62863;52.062;23.764;2024-03-06T04:00:08;25;21.6;14.6
74430;PMS7003;62863;52.062;23.764;2024-03-06T04:04:30;25;21.6;14.6
74430;PMS7003;62863;52.062;23.764;2024-03-06T04:09:40;20.8;16.4;12
74430;PMS7003;62863;52.062;23.764;2024-03-06T04:14:38;21.4;20;12.8
74430;PMS7003;62863;52.062;23.764;2024-03-06T04:19:54;22.8;19.4;12.4
74430;PMS7003;62863;52.062;23.764;2024-03-06T04:25:08;24.6;22.4;14.6
74430;PMS7003;62863;52.062;23.764;2024-03-06T04:29:58;24.6;22.4;14.6
74430;PMS7003;62863;52.062;23.764;2024-03-06T04:34:30;26.8;22.4;15.8
74430;PMS7003;62863;52.062;23.764;2024-03-06T04:40:08;28.2;22.4;15
74430;PMS7003;62863;52.062;23.764;2024-03-06T04:45:09;20.7;19;13.7
74430;PMS7003;62863;52.062;23.764;2024-03-06T04:49:58;20.7;19;13.7
74430;PMS7003;62863;52.062;23.764;2024-03-06T04:54:42;22.6;20.4;12.8
74430;PMS7003;62863;52.062;23.764;2024-03-06T04:59:36;18;16.3;11.3
74430;PMS7003;62863;52.062;23.764;2024-03-06T05:05:08;20.2;16.8;12.2
74430;PMS7003;62863;52.062;23.764;2024-03-06T05:09:54;20.2;16.8;12.2
74430;PMS7003;62863;52.062;23.764;2024-03-06T05:14:36;19.6;17.2;11.8
74430;PMS7003;62863;52.062;23.764;2024-03-06T05:19:44;16.4;14.2;9.2
74430;PMS7003;62863;52.062;23.764;2024-03-06T05:24:48;22.6;19;12.6
74430;PMS7003;62863;52.062;23.764;2024-03-06T05:29:30;23.2;19.4;12.8
74430;PMS7003;62863;52.062;23.764;2024-03-06T05:35:08;24.4;20.6;13.8
74430;PMS7003;62863;52.062;23.764;2024-03-06T05:39:50;24.4;20.6;13.8
74430;PMS7003;62863;52.062;23.764;2024-03-06T05:44:32;24.6;20.4;14
74430;PMS7003;62863;52.062;23.764;2024-03-06T05:49:44;24.4;21.6;14
74430;PMS7003;62863;52.062;23.764;2024-03-06T05:54:54;23.4;21;12.4
74430;PMS7003;62863;52.062;23.764;2024-03-06T05:59:58;24.4;20.8;13.6
74430;PMS7003;62863;52.062;23.764;2024-03-06T06:04:30;26;23.6;15.4
74430;PMS7003;62863;52.062;23.764;2024-03-06T06:09:38;24.5;22.3;16.3
74430;PMS7003;62863;52.062;23.764;2024-03-06T06:14:58;27;23.2;15.4
74430;PMS7003;62863;52.062;23.764;2024-03-06T06:20:08;31.2;25.6;17.4
74430;PMS7003;62863;52.062;23.764;2024-03-06T06:24:48;31.2;25.6;17.4
74430;PMS7003;62863;52.062;23.764;2024-03-06T06:29:58;28;22.4;16.4
74430;PMS7003;62863;52.062;23.764;2024-03-06T06:34:58;29.8;27.8;18
74430;PMS7003;62863;52.062;23.764;2024-03-06T06:39:36;35;29.8;19.2
74430;PMS7003;62863;52.062;23.764;2024-03-06T06:44:30;33.2;29.2;19
74430;PMS7003;62863;52.062;23.764;2024-03-06T06:49:30;31.5;28;17.8
74430;PMS7003;62863;52.062;23.764;2024-03-06T06:54:46;38.2;33.8;20.8
74430;PMS7003;62863;52.062;23.764;2024-03-06T06:59:56;32.8;29.6;20.6
74430;PMS7003;62863;52.062;23.764;2024-03-06T07:04:30;29.8;26.6;18.6
74430;PMS7003;62863;52.062;23.764;2024-03-06T07:10:10;31.6;27.4;17.8
74430;PMS7003;62863;52.062;23.764;2024-03-06T07:15:00;31.6;27.4;17.8
74430;PMS7003;62863;52.062;23.764;2024-03-06T07:19:50;27;23.4;16.4
74430;PMS7003;62863;52.062;23.764;2024-03-06T07:24:38;26.6;22.2;13.6
74430;PMS7003;62863;52.062;23.764;2024-03-06T07:29:58;25;20.8;15.3
74430;PMS7003;62863;52.062;23.764;2024-03-06T07:35:00;32.4;24.2;16.8
74430;PMS7003;62863;52.062;23.764;2024-03-06T07:39:44;26.8;23;14.4
74430;PMS7003;62863;52.062;23.764;2024-03-06T07:44:42;28.6;23.6;15.4
74430;PMS7003;62863;52.062;23.764;2024-03-06T07:50:02;29.2;23.6;14.8
74430;PMS7003;62863;52.062;23.764;2024-03-06T07:55:12;26.8;23.6;16.4
74430;PMS7003;62863;52.062;23.764;2024-03-06T07:59:50;26.8;23.6;16.4
74430;PMS7003;62863;52.062;23.764;2024-03-06T08:04:44;28.6;25;16
74430;PMS7003;62863;52.062;23.764;2024-03-06T08:10:12;27.2;23;16.8
74430;PMS7003;62863;52.062;23.764;2024-03-06T08:15:00;27.2;23;16.8
74430;PMS7003;62863;52.062;23.764;2024-03-06T08:19:30;25;21.4;14.2
74430;PMS7003;62863;52.062;23.764;2024-03-06T08:24:30;26.6;23.4;15.8
74430;PMS7003;62863;52.062;23.764;2024-03-06T08:29:50;27.8;21;15
74430;PMS7003;62863;52.062;23.764;2024-03-06T08:35:12;24.6;20.8;14.6
74430;PMS7003;62863;52.062;23.764;2024-03-06T08:40:02;24.6;20.8;14.6
74430;PMS7003;62863;52.062;23.764;2024-03-06T08:45:12;25.2;23;16
74430;PMS7003;62863;52.062;23.764;2024-03-06T08:50:12;23.8;19.6;14
74430;PMS7003;62863;52.062;23.764;2024-03-06T08:54:40;23.8;19.6;14
74430;PMS7003;62863;52.062;23.764;2024-03-06T09:00:12;30;23;17.4
74430;PMS7003;62863;52.062;23.764;2024-03-06T09:05:12;22;19;13.2
74430;PMS7003;62863;52.062;23.764;2024-03-06T09:10:00;22;19;13.2
74430;PMS7003;62863;52.062;23.764;2024-03-06T09:14:30;26.8;23.4;15.6
74430;PMS7003;62863;52.062;23.764;2024-03-06T09:19:58;22.8;21.2;15.4
74430;PMS7003;62863;52.062;23.764;2024-03-06T09:24:52;21.2;19.2;13.6
74430;PMS7003;62863;52.062;23.764;2024-03-06T09:30:12;24.8;20.8;14.4
74430;PMS7003;62863;52.062;23.764;2024-03-06T09:34:50;24.8;20.8;14.4
74430;PMS7003;62863;52.062;23.764;2024-03-06T09:40:19;23.6;21;15.4
74430;PMS7003;62863;52.062;23.764;2024-03-06T09:44:30;23.6;21;15.4
74430;PMS7003;62863;52.062;23.764;2024-03-06T09:49:30;31;26.8;18.6
74430;PMS7003;62863;52.062;23.764;2024-03-06T09:54:48;29;24.4;16.8
74430;PMS7003;62863;52.062;23.764;2024-03-06T09:59:30;29.4;24.8;17
74430;PMS7003;62863;52.062;23.764;2024-03-06T10:04:32;20.4;18.8;14
74430;PMS7003;62863;52.062;23.764;2024-03-06T10:09:48;25.2;24.6;17
74430;PMS7003;62863;52.062;23.764;2024-03-06T10:15:02;31;24.8;17.4
74430;PMS7003;62863;52.062;23.764;2024-03-06T10:19:30;27;22.4;16.2
74430;PMS7003;62863;52.062;23.764;2024-03-06T10:25:10;28.3;25.5;17.8
74430;PMS7003;62863;52.062;23.764;2024-03-06T10:30:00;28.3;25.5;17.8
74430;PMS7003;62863;52.062;23.764;2024-03-06T10:35:19;27.2;23.4;16.6
74430;PMS7003;62863;52.062;23.764;2024-03-06T10:40:12;25.2;21.6;17
74430;PMS7003;62863;52.062;23.764;2024-03-06T10:45:00;25.2;21.6;17
74430;PMS7003;62863;52.062;23.764;2024-03-06T10:49:31;28.4;25;18
74430;PMS7003;62863;52.062;23.764;2024-03-06T10:54:58;30.3;23;15.7
74430;PMS7003;62863;52.062;23.764;2024-03-06T11:00:08;29;24.3;16
74430;PMS7003;62863;52.062;23.764;2024-03-06T11:05:01;29;24.3;16
74430;PMS7003;62863;52.062;23.764;2024-03-06T11:10:00;24.5;22;15.5
74430;PMS7003;62863;52.062;23.764;2024-03-06T11:15:13;24.3;20.7;14
74430;PMS7003;62863;52.062;23.764;2024-03-06T11:20:15;26.6;23.8;17
74430;PMS7003;62863;52.062;23.764;2024-03-06T11:24:46;26.6;23.8;17
74430;PMS7003;62863;52.062;23.764;2024-03-06T11:30:02;25.8;24.2;17.2
74430;PMS7003;62863;52.062;23.764;2024-03-06T11:34:38;25.8;24.2;16.4
74430;PMS7003;62863;52.062;23.764;2024-03-06T11:39:32;23.2;21;15.4
74430;PMS7003;62863;52.062;23.764;2024-03-06T11:44:51;24;20.5;14.5
74430;PMS7003;62863;52.062;23.764;2024-03-06T11:49:46;28.8;24.4;19
74430;PMS7003;62863;52.062;23.764;2024-03-06T11:54:46;26.8;23.8;16.8
74430;PMS7003;62863;52.062;23.764;2024-03-06T12:00:02;26;23.2;17
74430;PMS7003;62863;52.062;23.764;2024-03-06T12:04:46;31.2;28.4;19
74430;PMS7003;62863;52.062;23.764;2024-03-06T12:09:48;30;26.8;19
74430;PMS7003;62863;52.062;23.764;2024-03-06T12:15:03;28.4;25;17.4
74430;PMS7003;62863;52.062;23.764;2024-03-06T12:19:56;30.2;27.2;19
74430;PMS7003;62863;52.062;23.764;2024-03-06T12:24:38;31.4;25;17.6
74430;PMS7003;62863;52.062;23.764;2024-03-06T12:29:40;29.6;27.2;18.8
74430;PMS7003;62863;52.062;23.764;2024-03-06T12:34:34;29.8;23.6;18.4
74430;PMS7003;62863;52.062;23.764;2024-03-06T12:39:56;44.2;36;24.4
74430;PMS7003;62863;52.062;23.764;2024-03-06T12:44:50;30.8;28.3;18.8
74430;PMS7003;62863;52.062;23.764;2024-03-06T12:50:00;28;24.2;17.6
74430;PMS7003;62863;52.062;23.764;2024-03-06T12:54:40;29.4;26.8;18.2
74430;PMS7003;62863;52.062;23.764;2024-03-06T13:00:00;33.6;30;20
74430;PMS7003;62863;52.062;23.764;2024-03-06T13:04:40;29.2;27.2;19.6
74430;PMS7003;62863;52.062;23.764;2024-03-06T13:09:30;29.3;27;18
74430;PMS7003;62863;52.062;23.764;2024-03-06T13:14:38;29.6;27.4;19.4
74430;PMS7003;62863;52.062;23.764;2024-03-06T13:20:10;30.4;28.4;19.8
74430;PMS7003;62863;52.062;23.764;2024-03-06T13:24:30;30.4;28.4;19.8
74430;PMS7003;62863;52.062;23.764;2024-03-06T13:29:30;30.8;29;20.2
74430;PMS7003;62863;52.062;23.764;2024-03-06T13:35:02;34;28.4;19
74430;PMS7003;62863;52.062;23.764;2024-03-06T13:40:00;26.6;23.8;17.6
74430;PMS7003;62863;52.062;23.764;2024-03-06T13:44:54;30.6;27.2;18.6
74430;PMS7003;62863;52.062;23.764;2024-03-06T13:50:11;33.6;27.8;20.4
74430;PMS7003;62863;52.062;23.764;2024-03-06T13:54:46;33.6;27.8;20.4
74430;PMS7003;62863;52.062;23.764;2024-03-06T14:00:10;33.8;31.8;21.2
74430;PMS7003;62863;52.062;23.764;2024-03-06T14:05:10;37.4;31.8;21.6
74430;PMS7003;62863;52.062;23.764;2024-03-06T14:10:01;37.4;31.8;21.6
74430;PMS7003;62863;52.062;23.764;2024-03-06T14:14:46;32.4;29;20
74430;PMS7003;62863;52.062;23.764;2024-03-06T14:19:54;31.4;28.6;20.6
74430;PMS7003;62863;52.062;23.764;2024-03-06T14:25:00;34.2;28.8;20.6
74430;PMS7003;62863;52.062;23.764;2024-03-06T14:30:10;32.4;28.6;19.4
74430;PMS7003;62863;52.062;23.764;2024-03-06T14:34:50;32.4;28.6;19.4
74430;PMS7003;62863;52.062;23.764;2024-03-06T14:40:10;31.8;26.8;18.5
74430;PMS7003;62863;52.062;23.764;2024-03-06T14:44:50;31.8;26.8;18.5
74430;PMS7003;62863;52.062;23.764;2024-03-06T14:49:30;32.4;27.6;19.6
74430;PMS7003;62863;52.062;23.764;2024-03-06T14:54:30;29.6;26.4;19.4
74430;PMS7003;62863;52.062;23.764;2024-03-06T14:59:46;30.3;25.5;18.5
74430;PMS7003;62863;52.062;23.764;2024-03-06T15:04:42;32;28.2;19.6
74430;PMS7003;62863;52.062;23.764;2024-03-06T15:09:30;36.4;30.4;18.8
74430;PMS7003;62863;52.062;23.764;2024-03-06T15:15:01;32.4;27;17.8
74430;PMS7003;62863;52.062;23.764;2024-03-06T15:19:42;28;25.8;18.8
74430;PMS7003;62863;52.062;23.764;2024-03-06T15:25:11;29.8;25.8;17.8
74430;PMS7003;62863;52.062;23.764;2024-03-06T15:29:38;29.8;25.8;17.8
74430;PMS7003;62863;52.062;23.764;2024-03-06T15:35:10;33.4;29;19.6
74430;PMS7003;62863;52.062;23.764;2024-03-06T15:40:10;30.8;28.6;19.2
74430;PMS7003;62863;52.062;23.764;2024-03-06T15:44:52;30.8;28.6;19.2
74430;PMS7003;62863;52.062;23.764;2024-03-06T15:49:47;30.6;26.6;17.6
74430;PMS7003;62863;52.062;23.764;2024-03-06T15:54:58;27;24.8;18.6
74430;PMS7003;62863;52.062;23.764;2024-03-06T16:00:00;31;25;18.2
74430;PMS7003;62863;52.062;23.764;2024-03-06T16:05:12;28.4;25.4;17
74430;PMS7003;62863;52.062;23.764;2024-03-06T16:09:50;28.4;25.4;17
74430;PMS7003;62863;52.062;23.764;2024-03-06T16:15:10;30.4;25.8;17.2
74430;PMS7003;62863;52.062;23.764;2024-03-06T16:19:54;30.4;25.8;17.2
74430;PMS7003;62863;52.062;23.764;2024-03-06T16:24:46;29.8;27;19
74430;PMS7003;62863;52.062;23.764;2024-03-06T16:29:30;31.6;27.4;18.6
74430;PMS7003;62863;52.062;23.764;2024-03-06T16:34:31;35.4;28.8;19.4
74430;PMS7003;62863;52.062;23.764;2024-03-06T16:39:50;29.8;26;17.8
74430;PMS7003;62863;52.062;23.764;2024-03-06T16:44:39;32.6;27;17.2
74430;PMS7003;62863;52.062;23.764;2024-03-06T16:50:03;30.2;25.6;17.4
74430;PMS7003;62863;52.062;23.764;2024-03-06T16:54:30;35.4;29.6;20.8
74430;PMS7003;62863;52.062;23.764;2024-03-06T17:00:13;31;28;19.5
74430;PMS7003;62863;52.062;23.764;2024-03-06T17:04:30;31;28;19.5
74430;PMS7003;62863;52.062;23.764;2024-03-06T17:09:50;31;26.8;19.4
74430;PMS7003;62863;52.062;23.764;2024-03-06T17:14:46;34.6;29.8;20.6
74430;PMS7003;62863;52.062;23.764;2024-03-06T17:20:00;29.4;26.2;18
74430;PMS7003;62863;52.062;23.764;2024-03-06T17:24:44;29.8;27;18.6
74430;PMS7003;62863;52.062;23.764;2024-03-06T17:29:58;30.8;26;18
74430;PMS7003;62863;52.062;23.764;2024-03-06T17:35:12;27.8;25.2;17
74430;PMS7003;62863;52.062;23.764;2024-03-06T17:39:58;27.8;25.2;17
74430;PMS7003;62863;52.062;23.764;2024-03-06T17:44:30;30.6;25.6;17.2
74430;PMS7003;62863;52.062;23.764;2024-03-06T17:50:09;31.2;25.2;17.6
74430;PMS7003;62863;52.062;23.764;2024-03-06T18:00:00;26.4;23.6;16.2
74430;PMS7003;62863;52.062;23.764;2024-03-06T18:04:30;28.5;22.5;15.3
74430;PMS7003;62863;52.062;23.764;2024-03-06T18:09:40;26.6;23.2;16.8
74430;PMS7003;62863;52.062;23.764;2024-03-06T18:14:44;28.6;26.2;18.2
74430;PMS7003;62863;52.062;23.764;2024-03-06T18:19:38;28.4;25.2;17.8
74430;PMS7003;62863;52.062;23.764;2024-03-06T18:24:36;34;28.8;20.2
74430;PMS7003;62863;52.062;23.764;2024-03-06T18:29:36;32.2;28.8;20.2
74430;PMS7003;62863;52.062;23.764;2024-03-06T18:34:56;29.6;24;16.8
74430;PMS7003;62863;52.062;23.764;2024-03-06T18:39:46;32.4;25;16.6
74430;PMS7003;62863;52.062;23.764;2024-03-06T18:45:12;29.2;24.8;17.4
74430;PMS7003;62863;52.062;23.764;2024-03-06T18:50:01;29.2;24.8;17.4
74430;PMS7003;62863;52.062;23.764;2024-03-06T18:54:58;34;27;18.4
74430;PMS7003;62863;52.062;23.764;2024-03-06T18:59:30;33.6;27;18.4
74430;PMS7003;62863;52.062;23.764;2024-03-06T19:04:58;33.8;28.8;19.5
74430;PMS7003;62863;52.062;23.764;2024-03-06T19:10:00;32.8;29.4;19.8
74430;PMS7003;62863;52.062;23.764;2024-03-06T19:14:46;31.4;26;18.4
74430;PMS7003;62863;52.062;23.764;2024-03-06T19:19:50;33.6;28.6;18.8
74430;PMS7003;62863;52.062;23.764;2024-03-06T19:24:32;34.4;32.2;22.6
74430;PMS7003;62863;52.062;23.764;2024-03-06T19:30:13;31.2;26.8;18.2
74430;PMS7003;62863;52.062;23.764;2024-03-06T19:34:31;31.2;26.8;18.2
74430;PMS7003;62863;52.062;23.764;2024-03-06T19:39:31;33;27;18.4
74430;PMS7003;62863;52.062;23.764;2024-03-06T19:44:37;30.8;27.8;19.4
74430;PMS7003;62863;52.062;23.764;2024-03-06T19:49:39;27.2;26;18.8
74430;PMS7003;62863;52.062;23.764;2024-03-06T19:54:49;32;28.4;18.4
74430;PMS7003;62863;52.062;23.764;2024-03-06T19:59:39;30.6;27.6;18
74430;PMS7003;62863;52.062;23.764;2024-03-06T20:04:31;28.8;24.3;18
74430;PMS7003;62863;52.062;23.764;2024-03-06T20:09:59;34.6;28.4;19.8
74430;PMS7003;62863;52.062;23.764;2024-03-06T20:14:37;32.2;26;18
74430;PMS7003;62863;52.062;23.764;2024-03-06T20:20:13;38.4;31.2;20.6
74430;PMS7003;62863;52.062;23.764;2024-03-06T20:25:03;38.4;31.2;20.6
74430;PMS7003;62863;52.062;23.764;2024-03-06T20:29:59;34;31;20.6
74430;PMS7003;62863;52.062;23.764;2024-03-06T20:34:39;31.2;27.6;19.6
74430;PMS7003;62863;52.062;23.764;2024-03-06T20:39:33;28;26.2;17.8
74430;PMS7003;62863;52.062;23.764;2024-03-06T20:45:01;35.8;29.4;19.4
74430;PMS7003;62863;52.062;23.764;2024-03-06T20:49:47;34.4;31.2;19
74430;PMS7003;62863;52.062;23.764;2024-03-06T20:54:43;32.4;27.6;18.6
74430;PMS7003;62863;52.062;23.764;2024-03-06T20:59:41;32.2;27;18.4
74430;PMS7003;62863;52.062;23.764;2024-03-06T21:05:13;28.4;26.8;18.4
74430;PMS7003;62863;52.062;23.764;2024-03-06T21:09:51;28.4;26.8;18.4
74430;PMS7003;62863;52.062;23.764;2024-03-06T21:15:13;34.2;29.6;20
74430;PMS7003;62863;52.062;23.764;2024-03-06T21:19:49;34.2;29.6;20
74430;PMS7003;62863;52.062;23.764;2024-03-06T21:24:39;33;29;19.8
74430;PMS7003;62863;52.062;23.764;2024-03-06T21:30:13;28.2;24.4;16.8
74430;PMS7003;62863;52.062;23.764;2024-03-06T21:34:59;28.2;24.4;16.8
74430;PMS7003;62863;52.062;23.764;2024-03-06T21:39:43;33;29.2;20.2
74430;PMS7003;62863;52.062;23.764;2024-03-06T21:45:13;31.8;29;19.6
74430;PMS7003;62863;52.062;23.764;2024-03-06T21:50:03;31.8;29;19.6
74430;PMS7003;62863;52.062;23.764;2024-03-06T21:55:13;32.6;27.4;17.4
74430;PMS7003;62863;52.062;23.764;2024-03-06T22:00:13;31.5;29.5;19
74430;PMS7003;62863;52.062;23.764;2024-03-06T22:04:55;31.5;29.5;19
74430;PMS7003;62863;52.062;23.764;2024-03-06T22:10:13;37;30.4;19.2
74430;PMS7003;62863;52.062;23.764;2024-03-06T22:15:13;32.8;26.4;19
74430;PMS7003;62863;52.062;23.764;2024-03-06T22:20:01;32.8;26.4;19
74430;PMS7003;62863;52.062;23.764;2024-03-06T22:24:39;33.8;29.2;19.8
74430;PMS7003;62863;52.062;23.764;2024-03-06T22:30:13;30.8;27.2;18.8
74430;PMS7003;62863;52.062;23.764;2024-03-06T22:35:03;30.8;27.2;18.8
74430;PMS7003;62863;52.062;23.764;2024-03-06T22:40:15;28.8;25.8;17.6
74430;PMS7003;62863;52.062;23.764;2024-03-06T22:44:51;28.8;25.8;17.6
74430;PMS7003;62863;52.062;23.764;2024-03-06T22:50:13;35;29.2;20.4
74430;PMS7003;62863;52.062;23.764;2024-03-06T22:54:51;35;29.2;20.4
74430;PMS7003;62863;52.062;23.764;2024-03-06T22:59:47;31.8;26.2;16.6
74430;PMS7003;62863;52.062;23.764;2024-03-06T23:04:39;29;25.8;18.3
74430;PMS7003;62863;52.062;23.764;2024-03-06T23:09:31;36.8;32.2;20.4
74430;PMS7003;62863;52.062;23.764;2024-03-06T23:14:43;32.8;29.4;19.2
74430;PMS7003;62863;52.062;23.764;2024-03-06T23:19:31;33.8;26.4;19.2
74430;PMS7003;62863;52.062;23.764;2024-03-06T23:25:01;30;28.4;18.6
74430;PMS7003;62863;52.062;23.764;2024-03-06T23:29:49;28;26;17.6
74430;PMS7003;62863;52.062;23.764;2024-03-06T23:35:01;34.2;30;19.2
74430;PMS7003;62863;52.062;23.764;2024-03-06T23:40:11;32;26.8;18
74430;PMS7003;62863;52.062;23.764;2024-03-06T23:45:11;34.6;29.6;18.2
74430;PMS7003;62863;52.062;23.764;2024-03-06T23:49:31;34.6;29.6;18.2
74430;PMS7003;62863;52.062;23.764;2024-03-06T23:54:39;31;27.6;19.4
74430;PMS7003;62863;52.062;23.764;2024-03-06T23:59:31;35;29;19.4
